createdAt,value
2023-03-31T00:01:46.189Z,9.50
2023-03-31T00:04:14.091Z,9.40
2023-03-31T00:06:42.251Z,9.50
2023-03-31T00:09:12.601Z,9.40
2023-03-31T00:11:42.027Z,9.40
2023-03-31T00:14:09.549Z,9.50
2023-03-31T00:16:37.906Z,9.50
2023-03-31T00:19:05.888Z,9.50
2023-03-31T00:21:32.586Z,9.50
2023-03-31T00:24:05.035Z,9.50
2023-03-31T00:26:33.136Z,9.50
2023-03-31T00:29:00.309Z,9.50
2023-03-31T00:31:27.994Z,9.50
2023-03-31T00:33:55.112Z,9.50
2023-03-31T00:36:22.915Z,9.50
2023-03-31T00:38:49.762Z,9.50
2023-03-31T00:41:16.455Z,9.50
2023-03-31T00:44:07.185Z,9.50
2023-03-31T00:47:00.701Z,9.50
2023-03-31T00:49:29.848Z,9.50
2023-03-31T00:52:03.313Z,9.40
2023-03-31T00:54:32.377Z,9.40
2023-03-31T00:56:59.349Z,9.40
2023-03-31T00:59:30.418Z,9.40
2023-03-31T01:01:58.484Z,9.40
2023-03-31T01:04:26.038Z,9.40
2023-03-31T01:07:00.847Z,9.30
2023-03-31T01:09:30.527Z,9.30
2023-03-31T01:11:57.835Z,9.30
2023-03-31T01:14:25.185Z,9.30
2023-03-31T01:16:51.971Z,9.30
2023-03-31T01:19:47.344Z,9.20
2023-03-31T01:22:51.601Z,9.20
2023-03-31T01:25:33.572Z,9.10
2023-03-31T01:28:21.909Z,9.00
2023-03-31T01:31:13.344Z,9.00
2023-03-31T01:33:58.815Z,9.00
2023-03-31T01:36:25.440Z,8.90
2023-03-31T01:39:07.207Z,8.90
2023-03-31T01:42:01.468Z,8.80
2023-03-31T01:44:39.756Z,8.80
2023-03-31T01:47:27.157Z,8.80
2023-03-31T01:50:04.980Z,8.80
2023-03-31T01:52:48.024Z,8.70
2023-03-31T01:55:24.426Z,8.70
2023-03-31T01:58:03.128Z,8.70
2023-03-31T02:00:33.886Z,8.70
2023-03-31T02:03:18.892Z,8.70
2023-03-31T02:05:54.834Z,8.70
2023-03-31T02:08:26.929Z,8.70
2023-03-31T02:10:54.773Z,8.70
2023-03-31T02:13:24.263Z,8.80
2023-03-31T02:15:56.048Z,8.80
2023-03-31T02:18:26.998Z,8.80
2023-03-31T02:20:55.757Z,8.80
2023-03-31T02:23:25.968Z,8.80
2023-03-31T02:25:57.508Z,8.80
2023-03-31T02:28:27.341Z,8.80
2023-03-31T02:31:25.776Z,8.80
2023-03-31T02:33:52.907Z,8.80
2023-03-31T02:36:20.091Z,8.80
2023-03-31T02:38:57.341Z,8.80
2023-03-31T02:41:24.184Z,8.90
2023-03-31T02:43:50.908Z,8.80
2023-03-31T02:46:17.676Z,8.90
2023-03-31T02:48:50.168Z,8.90
2023-03-31T02:51:53.964Z,9.00
2023-03-31T02:54:29.664Z,9.00
2023-03-31T02:57:08.799Z,9.00
2023-03-31T03:00:00.870Z,9.00
2023-03-31T03:02:42.633Z,9.00
2023-03-31T03:05:30.540Z,9.00
2023-03-31T03:08:09.322Z,9.00
2023-03-31T03:10:44.648Z,9.00
2023-03-31T03:13:20.039Z,9.00
2023-03-31T03:16:10.501Z,9.00
2023-03-31T03:18:37.385Z,9.10
2023-03-31T03:21:04.290Z,9.00
2023-03-31T03:23:31.033Z,9.00
2023-03-31T03:25:57.828Z,9.00
2023-03-31T03:28:24.517Z,9.10
2023-03-31T03:30:51.221Z,9.10
2023-03-31T03:33:17.967Z,9.10
2023-03-31T03:35:44.808Z,9.10
2023-03-31T03:38:11.561Z,9.10
2023-03-31T03:40:38.227Z,9.10
2023-03-31T03:43:04.920Z,9.10
2023-03-31T03:45:31.583Z,9.10
2023-03-31T03:47:58.329Z,9.10
2023-03-31T03:50:25.050Z,9.10
2023-03-31T03:52:51.730Z,9.20
2023-03-31T03:55:18.452Z,9.20
2023-03-31T03:57:45.134Z,9.20
2023-03-31T04:00:12.415Z,9.20
2023-03-31T04:02:39.961Z,9.20
2023-03-31T04:05:07.043Z,9.20
2023-03-31T04:07:33.833Z,9.20
2023-03-31T04:10:00.540Z,9.30
2023-03-31T04:12:27.259Z,9.20
2023-03-31T04:14:53.911Z,9.20
2023-03-31T04:17:20.791Z,9.20
2023-03-31T04:19:47.471Z,9.20
2023-03-31T04:22:14.151Z,9.30
2023-03-31T04:24:40.788Z,9.20
2023-03-31T04:27:07.739Z,9.30
2023-03-31T04:29:34.503Z,9.20
2023-03-31T04:32:01.605Z,9.30
2023-03-31T04:34:28.422Z,9.20
2023-03-31T04:36:55.103Z,9.20
2023-03-31T04:39:22.391Z,9.20
2023-03-31T04:41:49.047Z,9.20
2023-03-31T04:44:15.786Z,9.10
2023-03-31T04:46:42.583Z,9.10
2023-03-31T04:49:09.269Z,9.10
2023-03-31T04:51:35.968Z,9.20
2023-03-31T04:54:02.813Z,9.10
2023-03-31T04:56:29.517Z,9.20
2023-03-31T04:58:56.194Z,9.20
2023-03-31T05:01:22.951Z,9.20
2023-03-31T05:03:49.706Z,9.20
2023-03-31T05:06:17.096Z,9.20
2023-03-31T05:08:44.537Z,9.10
2023-03-31T05:11:11.568Z,9.10
2023-03-31T05:13:38.219Z,9.10
2023-03-31T05:16:09.981Z,9.10
2023-03-31T05:18:37.260Z,9.10
2023-03-31T05:21:15.346Z,9.10
2023-03-31T05:23:42.104Z,9.10
2023-03-31T05:26:09.087Z,9.10
2023-03-31T05:28:36.294Z,9.10
2023-03-31T05:31:04.562Z,9.00
2023-03-31T05:33:31.529Z,9.00
2023-03-31T05:35:58.724Z,9.00
2023-03-31T05:38:26.223Z,9.00
2023-03-31T05:40:52.890Z,9.00
2023-03-31T05:43:19.617Z,9.00
2023-03-31T05:45:46.387Z,9.00
2023-03-31T05:48:13.310Z,9.00
2023-03-31T05:50:40.122Z,9.00
2023-03-31T05:53:06.857Z,9.00
2023-03-31T05:55:36.175Z,9.10
2023-03-31T05:58:02.966Z,9.10
2023-03-31T06:00:29.726Z,9.20
2023-03-31T06:02:56.540Z,9.20
2023-03-31T06:05:23.309Z,9.30
2023-03-31T06:07:49.980Z,9.40
2023-03-31T06:10:16.778Z,9.40
2023-03-31T06:12:43.547Z,9.40
2023-03-31T06:15:10.542Z,9.50
2023-03-31T06:17:38.467Z,9.50
2023-03-31T06:20:26.516Z,9.50
2023-03-31T06:22:54.874Z,9.50
2023-03-31T06:25:21.818Z,9.60
2023-03-31T06:27:48.634Z,9.60
2023-03-31T06:30:15.908Z,9.70
2023-03-31T06:32:42.816Z,9.80
2023-03-31T06:35:09.900Z,9.80
2023-03-31T06:37:36.764Z,9.80
2023-03-31T06:40:03.633Z,9.80
2023-03-31T06:42:43.090Z,9.80
2023-03-31T06:45:10.552Z,9.80
2023-03-31T06:47:37.588Z,9.80
2023-03-31T06:50:05.792Z,9.70
2023-03-31T06:52:32.533Z,9.70
2023-03-31T06:54:59.278Z,9.80
2023-03-31T06:57:27.154Z,9.80
2023-03-31T06:59:54.059Z,9.80
2023-03-31T07:02:23.282Z,9.80
2023-03-31T07:04:50.194Z,9.80
2023-03-31T07:07:17.399Z,9.90
2023-03-31T07:09:46.794Z,9.90
2023-03-31T07:12:13.648Z,9.90
2023-03-31T07:14:40.512Z,10.00
2023-03-31T07:17:07.296Z,10.00
2023-03-31T07:19:34.098Z,10.10
2023-03-31T07:22:01.153Z,10.10
2023-03-31T07:24:27.895Z,10.20
2023-03-31T07:26:55.850Z,10.30
2023-03-31T07:29:22.643Z,10.40
2023-03-31T07:31:49.375Z,10.50
2023-03-31T07:34:17.769Z,10.50
2023-03-31T07:36:44.711Z,10.60
2023-03-31T07:39:11.587Z,10.70
2023-03-31T07:41:38.491Z,10.80
2023-03-31T07:44:05.357Z,10.80
2023-03-31T07:46:32.554Z,10.80
2023-03-31T07:48:59.722Z,10.80
2023-03-31T07:51:27.237Z,10.80
2023-03-31T07:53:54.964Z,10.80
2023-03-31T07:56:24.342Z,10.90
2023-03-31T07:58:55.288Z,10.90
2023-03-31T08:01:26.559Z,10.90
2023-03-31T08:03:54.529Z,11.10
2023-03-31T08:06:23.650Z,11.10
2023-03-31T08:08:50.839Z,11.20
2023-03-31T08:11:18.181Z,11.30
2023-03-31T08:13:45.070Z,11.50
2023-03-31T08:16:14.686Z,11.50
2023-03-31T08:18:41.904Z,11.60
2023-03-31T08:21:09.251Z,11.70
2023-03-31T08:23:36.963Z,11.80
2023-03-31T08:26:14.458Z,11.90
2023-03-31T08:28:43.884Z,11.90
2023-03-31T08:31:10.945Z,12.00
2023-03-31T08:33:38.413Z,12.10
2023-03-31T08:36:09.712Z,12.10
2023-03-31T08:38:39.065Z,12.30
2023-03-31T08:41:27.442Z,12.40
2023-03-31T08:43:56.373Z,12.40
2023-03-31T08:46:28.147Z,12.40
2023-03-31T08:48:58.450Z,12.40
2023-03-31T08:51:30.880Z,12.50
2023-03-31T08:54:02.704Z,12.50
2023-03-31T08:56:34.211Z,12.60
2023-03-31T08:59:01.190Z,12.80
2023-03-31T09:01:54.598Z,12.90
2023-03-31T09:04:44.400Z,13.00
2023-03-31T09:07:27.754Z,13.10
2023-03-31T09:10:07.180Z,13.20
2023-03-31T09:12:49.751Z,13.20
2023-03-31T09:15:47.264Z,13.30
2023-03-31T09:18:39.150Z,13.30
2023-03-31T09:21:12.155Z,13.30
2023-03-31T09:23:50.594Z,13.40
2023-03-31T09:26:32.895Z,13.30
2023-03-31T09:29:02.104Z,13.40
2023-03-31T09:31:30.738Z,13.30
2023-03-31T09:34:01.535Z,13.30
2023-03-31T09:36:28.773Z,13.30
2023-03-31T09:38:55.687Z,13.40
2023-03-31T09:41:22.997Z,13.30
2023-03-31T09:43:49.791Z,13.30
2023-03-31T09:46:39.273Z,13.50
2023-03-31T09:49:15.849Z,13.50
2023-03-31T09:51:46.438Z,13.40
2023-03-31T09:54:23.878Z,13.40
2023-03-31T09:56:52.532Z,13.30
2023-03-31T09:59:21.971Z,13.20
2023-03-31T10:01:53.976Z,13.10
2023-03-31T10:04:26.312Z,13.00
2023-03-31T10:06:55.600Z,13.10
2023-03-31T10:09:27.357Z,13.30
2023-03-31T10:12:25.164Z,13.30
2023-03-31T10:14:54.927Z,13.40
2023-03-31T10:17:24.841Z,13.50
2023-03-31T10:19:58.118Z,13.50
2023-03-31T10:22:28.841Z,13.40
2023-03-31T10:25:16.764Z,13.40
2023-03-31T10:27:47.349Z,13.50
2023-03-31T10:30:24.163Z,13.50
2023-03-31T10:32:53.274Z,13.50
2023-03-31T10:35:25.058Z,13.60
2023-03-31T10:37:56.982Z,13.50
2023-03-31T10:40:29.552Z,13.50
2023-03-31T10:43:14.393Z,13.50
2023-03-31T10:45:47.540Z,13.50
2023-03-31T10:48:24.413Z,13.60
2023-03-31T10:50:51.398Z,13.50
2023-03-31T10:53:19.455Z,13.50
2023-03-31T10:56:11.299Z,13.50
2023-03-31T10:59:06.028Z,13.40
2023-03-31T11:02:07.281Z,13.50
2023-03-31T11:04:41.951Z,13.60
2023-03-31T11:07:31.466Z,13.60
2023-03-31T11:10:29.137Z,13.60
2023-03-31T11:13:07.841Z,13.50
2023-03-31T11:16:01.259Z,13.10
2023-03-31T11:18:46.617Z,12.90
2023-03-31T11:21:34.333Z,12.80
2023-03-31T11:24:54.966Z,12.80
2023-03-31T11:27:24.386Z,12.90
2023-03-31T11:30:12.736Z,13.10
2023-03-31T11:32:55.619Z,13.30
2023-03-31T11:35:39.509Z,13.30
2023-03-31T11:38:25.304Z,13.20
2023-03-31T11:41:06.197Z,13.30
2023-03-31T11:43:39.728Z,13.40
2023-03-31T11:46:10.204Z,13.20
2023-03-31T11:48:59.791Z,13.20
2023-03-31T11:51:54.855Z,13.20
2023-03-31T11:54:37.645Z,13.20
2023-03-31T11:57:16.545Z,13.20
2023-03-31T11:59:44.695Z,13.40
2023-03-31T12:02:37.584Z,13.40
2023-03-31T12:05:06.850Z,13.50
2023-03-31T12:07:55.277Z,13.50
2023-03-31T12:10:29.307Z,13.70
2023-03-31T12:13:04.834Z,13.70
2023-03-31T12:15:37.502Z,13.70
2023-03-31T12:18:13.498Z,13.60
2023-03-31T12:20:48.111Z,13.40
2023-03-31T12:23:22.472Z,13.40
2023-03-31T12:25:55.421Z,13.30
2023-03-31T12:28:23.343Z,13.30
2023-03-31T12:30:53.716Z,13.20
2023-03-31T12:33:30.392Z,13.20
2023-03-31T12:36:04.511Z,13.40
2023-03-31T12:38:57.634Z,13.50
2023-03-31T12:41:33.189Z,13.50
2023-03-31T12:44:31.321Z,13.50
2023-03-31T12:47:19.307Z,13.40
2023-03-31T12:50:01.052Z,13.30
2023-03-31T12:52:36.950Z,13.10
2023-03-31T12:55:48.669Z,12.80
2023-03-31T12:58:24.851Z,12.60
2023-03-31T13:01:30.882Z,12.30
2023-03-31T13:04:27.074Z,12.10
2023-03-31T13:06:58.607Z,11.80
2023-03-31T13:09:31.194Z,11.50
2023-03-31T13:11:58.055Z,11.30
2023-03-31T13:14:29.467Z,11.10
2023-03-31T13:17:23.766Z,11.10
2023-03-31T13:19:51.590Z,11.00
2023-03-31T13:22:32.377Z,10.90
2023-03-31T13:25:30.258Z,10.90
2023-03-31T13:28:16.379Z,10.90
2023-03-31T13:30:42.994Z,10.80
2023-03-31T13:33:14.978Z,10.80
2023-03-31T13:35:48.324Z,10.70
2023-03-31T13:38:42.852Z,10.70
2023-03-31T13:41:24.057Z,10.60
2023-03-31T13:44:11.545Z,10.50
2023-03-31T13:47:04.756Z,10.40
2023-03-31T13:49:56.078Z,10.20
2023-03-31T13:52:56.966Z,10.10
2023-03-31T13:55:42.330Z,10.00
2023-03-31T13:58:25.299Z,9.80
2023-03-31T14:01:31.278Z,9.60
2023-03-31T14:03:58.120Z,9.60
2023-03-31T14:06:54.112Z,9.50
2023-03-31T14:09:29.745Z,9.60
2023-03-31T14:11:59.859Z,9.50
2023-03-31T14:14:28.249Z,9.50
2023-03-31T14:16:59.159Z,9.50
2023-03-31T14:19:34.574Z,9.50
2023-03-31T14:22:01.238Z,9.50
2023-03-31T14:24:41.575Z,9.40
2023-03-31T14:27:42.136Z,9.40
2023-03-31T14:30:14.757Z,9.30
2023-03-31T14:33:02.819Z,9.20
2023-03-31T14:36:08.806Z,9.20
2023-03-31T14:38:35.934Z,9.10
2023-03-31T14:41:02.844Z,9.10
2023-03-31T14:43:36.100Z,9.00
2023-03-31T14:46:05.398Z,9.00
2023-03-31T14:48:35.456Z,8.90
2023-03-31T14:51:03.428Z,8.90
2023-03-31T14:53:30.206Z,9.00
2023-03-31T14:56:22.272Z,9.00
2023-03-31T14:58:53.384Z,9.00
2023-03-31T15:01:25.700Z,9.00
2023-03-31T15:03:53.888Z,9.10
2023-03-31T15:06:23.791Z,9.10
2023-03-31T15:08:54.531Z,9.10
2023-03-31T15:11:21.341Z,9.10
2023-03-31T15:14:03.390Z,9.00
2023-03-31T15:16:38.591Z,9.00
2023-03-31T15:19:14.062Z,9.00
2023-03-31T15:21:41.167Z,9.00
2023-03-31T15:24:11.048Z,9.00
2023-03-31T15:26:43.235Z,9.00
2023-03-31T15:29:43.644Z,9.00
2023-03-31T15:32:26.274Z,9.00
2023-03-31T15:34:53.892Z,9.00
2023-03-31T15:37:36.843Z,9.00
2023-03-31T15:40:04.290Z,9.00
2023-03-31T15:42:31.968Z,9.00
2023-03-31T15:45:20.493Z,9.00
2023-03-31T15:47:53.476Z,9.00
2023-03-31T15:50:22.996Z,9.00
2023-03-31T15:52:52.438Z,9.00
2023-03-31T15:55:29.852Z,9.00
2023-03-31T15:57:58.833Z,9.10
2023-03-31T16:00:34.679Z,9.00
2023-03-31T16:03:02.496Z,9.00
2023-03-31T16:05:53.534Z,9.10
2023-03-31T16:08:28.564Z,9.00
2023-03-31T16:11:09.705Z,9.00
2023-03-31T16:13:41.120Z,9.10
2023-03-31T16:16:12.226Z,9.10
2023-03-31T16:18:46.840Z,9.10
2023-03-31T16:21:13.666Z,9.10
2023-03-31T16:23:41.415Z,9.10
2023-03-31T16:26:08.821Z,9.10
2023-03-31T16:28:38.594Z,9.10
2023-03-31T16:31:26.271Z,9.20
2023-03-31T16:33:55.712Z,9.20
2023-03-31T16:36:22.890Z,9.30
2023-03-31T16:38:52.743Z,9.30
2023-03-31T16:41:20.039Z,9.30
2023-03-31T16:43:47.104Z,9.40
2023-03-31T16:46:13.839Z,9.40
2023-03-31T16:48:40.621Z,9.30
2023-03-31T16:51:07.342Z,9.30
2023-03-31T16:53:35.942Z,9.30
2023-03-31T16:56:04.541Z,9.20
2023-03-31T16:58:31.412Z,9.20
2023-03-31T17:00:58.538Z,9.20
2023-03-31T17:03:25.671Z,9.20
2023-03-31T17:05:56.340Z,9.20
2023-03-31T17:08:27.193Z,9.20
2023-03-31T17:10:56.578Z,9.20
2023-03-31T17:13:23.364Z,9.20
2023-03-31T17:15:52.103Z,9.20
2023-03-31T17:18:22.597Z,9.20
2023-03-31T17:20:49.544Z,9.20
2023-03-31T17:23:16.331Z,9.20
2023-03-31T17:25:52.852Z,9.20
2023-03-31T17:28:19.625Z,9.10
2023-03-31T17:30:46.661Z,9.10
2023-03-31T17:33:14.252Z,9.10
2023-03-31T17:35:42.312Z,9.10
2023-03-31T17:38:10.125Z,9.20
2023-03-31T17:40:37.295Z,9.20
2023-03-31T17:43:05.269Z,9.20
2023-03-31T17:45:32.267Z,9.30
2023-03-31T17:47:59.722Z,9.30
2023-03-31T17:50:27.471Z,9.30
2023-03-31T17:52:54.472Z,9.30
2023-03-31T17:55:21.486Z,9.30
2023-03-31T17:57:48.225Z,9.30
2023-03-31T18:00:15.384Z,9.30
2023-03-31T18:02:42.767Z,9.30
2023-03-31T18:05:10.453Z,9.30
2023-03-31T18:07:38.031Z,9.40
2023-03-31T18:10:06.673Z,9.40
2023-03-31T18:12:35.055Z,9.40
2023-03-31T18:15:02.514Z,9.40
2023-03-31T18:17:30.774Z,9.40
2023-03-31T18:19:58.216Z,9.40
2023-03-31T18:22:25.402Z,9.40
2023-03-31T18:24:52.094Z,9.40
2023-03-31T18:27:18.912Z,9.40
2023-03-31T18:29:46.473Z,9.40
2023-03-31T18:32:13.324Z,9.40
2023-03-31T18:34:41.145Z,9.40
2023-03-31T18:37:07.837Z,9.30
2023-03-31T18:39:34.766Z,9.30
2023-03-31T18:42:01.851Z,9.30
2023-03-31T18:44:28.851Z,9.30
2023-03-31T18:46:55.668Z,9.40
2023-03-31T18:49:22.457Z,9.40
2023-03-31T18:51:49.273Z,9.40
2023-03-31T18:54:16.273Z,9.40
2023-03-31T18:56:43.016Z,9.50
2023-03-31T18:59:09.821Z,9.50
2023-03-31T19:01:36.902Z,9.50
2023-03-31T19:04:03.621Z,9.50
2023-03-31T19:06:30.313Z,9.50
2023-03-31T19:08:57.310Z,9.50
2023-03-31T19:11:24.064Z,9.60
2023-03-31T19:13:51.388Z,9.60
2023-03-31T19:16:18.157Z,9.60
2023-03-31T19:18:44.892Z,9.60
2023-03-31T19:21:11.830Z,9.60
2023-03-31T19:23:38.828Z,9.60
2023-03-31T19:26:06.362Z,9.60
2023-03-31T19:28:33.105Z,9.60
2023-03-31T19:31:03.974Z,9.60
2023-03-31T19:33:30.915Z,9.60
2023-03-31T19:35:57.668Z,9.60
2023-03-31T19:38:24.440Z,9.60
2023-03-31T19:40:51.237Z,9.50
2023-03-31T19:43:24.330Z,9.60
2023-03-31T19:45:55.733Z,9.60
2023-03-31T19:48:22.834Z,9.60
2023-03-31T19:50:55.081Z,9.60
2023-03-31T19:53:23.222Z,9.60
2023-03-31T19:56:04.777Z,9.60
2023-03-31T19:58:31.909Z,9.60
2023-03-31T20:00:58.714Z,9.70
2023-03-31T20:03:27.193Z,9.60
2023-03-31T20:06:11.860Z,9.60
2023-03-31T20:08:39.736Z,9.60
2023-03-31T20:11:08.462Z,9.50
2023-03-31T20:13:35.301Z,9.50
2023-03-31T20:16:14.727Z,9.40
2023-03-31T20:18:41.924Z,9.40
2023-03-31T20:21:11.120Z,9.40
2023-03-31T20:23:39.468Z,9.40
2023-03-31T20:26:09.203Z,9.40
2023-03-31T20:28:37.309Z,9.40
2023-03-31T20:31:13.247Z,9.40
2023-03-31T20:33:40.826Z,9.40
2023-03-31T20:36:09.738Z,9.40
2023-03-31T20:38:37.874Z,9.40
2023-03-31T20:41:04.874Z,9.40
2023-03-31T20:43:32.141Z,9.40
2023-03-31T20:46:00.410Z,9.40
2023-03-31T20:48:27.096Z,9.40
2023-03-31T20:50:53.977Z,9.40
2023-03-31T20:53:20.762Z,9.50
2023-03-31T20:55:47.515Z,9.50
2023-03-31T20:58:14.317Z,9.40
2023-03-31T21:00:41.080Z,9.40
2023-03-31T21:03:08.070Z,9.50
2023-03-31T21:05:45.576Z,9.40
2023-03-31T21:08:12.576Z,9.40
2023-03-31T21:10:41.153Z,9.40
2023-03-31T21:13:08.574Z,9.30
2023-03-31T21:15:35.280Z,9.30
2023-03-31T21:18:02.146Z,9.30
2023-03-31T21:20:29.803Z,9.30
2023-03-31T21:22:57.321Z,9.30
2023-03-31T21:25:24.779Z,9.20
2023-03-31T21:27:51.979Z,9.20
2023-03-31T21:30:19.421Z,9.20
2023-03-31T21:32:46.042Z,9.20
2023-03-31T21:35:12.824Z,9.20
2023-03-31T21:37:39.516Z,9.20
2023-03-31T21:40:06.967Z,9.20
2023-03-31T21:42:34.485Z,9.20
2023-03-31T21:45:01.240Z,9.10
2023-03-31T21:47:28.578Z,9.10
2023-03-31T21:49:55.443Z,9.20
2023-03-31T21:52:22.240Z,9.10
2023-03-31T21:54:48.953Z,9.10
2023-03-31T21:57:15.850Z,9.10
2023-03-31T21:59:42.589Z,9.10
2023-03-31T22:02:09.364Z,9.10
2023-03-31T22:04:36.415Z,9.00
2023-03-31T22:07:03.081Z,9.00
2023-03-31T22:09:29.853Z,9.00
2023-03-31T22:11:56.613Z,8.90
2023-03-31T22:14:23.374Z,8.90
2023-03-31T22:16:50.090Z,8.90
2023-03-31T22:19:16.861Z,8.90
2023-03-31T22:21:43.850Z,9.00
2023-03-31T22:24:11.649Z,8.90
2023-03-31T22:26:38.364Z,8.90
2023-03-31T22:29:05.040Z,8.90
2023-03-31T22:31:31.780Z,8.90
2023-03-31T22:33:58.534Z,8.90
2023-03-31T22:36:25.326Z,8.90
2023-03-31T22:38:52.059Z,8.90
2023-03-31T22:41:18.816Z,8.90
2023-03-31T22:43:46.378Z,8.90
2023-03-31T22:46:13.367Z,8.90
2023-03-31T22:48:40.184Z,8.90
2023-03-31T22:51:07.548Z,8.90
2023-03-31T22:53:34.547Z,8.90
2023-03-31T22:56:07.765Z,8.80
2023-03-31T22:58:35.011Z,8.80
2023-03-31T23:01:02.056Z,8.80
2023-03-31T23:03:29.023Z,8.70
2023-03-31T23:05:55.968Z,8.70
2023-03-31T23:08:23.139Z,8.70
2023-03-31T23:11:00.332Z,8.70
2023-03-31T23:13:27.495Z,8.60
2023-03-31T23:15:54.435Z,8.60
2023-03-31T23:18:21.600Z,8.60
2023-03-31T23:20:48.633Z,8.60
2023-03-31T23:23:15.367Z,8.60
2023-03-31T23:25:42.056Z,8.60
2023-03-31T23:28:08.688Z,8.60
2023-03-31T23:30:35.398Z,8.60
2023-03-31T23:33:02.112Z,8.70
2023-03-31T23:35:29.210Z,8.60
2023-03-31T23:37:55.976Z,8.60
2023-03-31T23:40:22.685Z,8.60
2023-03-31T23:42:49.397Z,8.60
2023-03-31T23:45:16.122Z,8.60
2023-03-31T23:47:42.930Z,8.70
2023-03-31T23:50:10.062Z,8.70
2023-03-31T23:52:36.722Z,8.70
2023-03-31T23:55:04.455Z,8.70
2023-03-31T23:57:31.277Z,8.70
2023-03-31T23:59:58.041Z,8.70
